createdAt,value
2022-10-30T00:02:09.968Z,100703.50
2022-10-30T00:04:46.433Z,100700.97
2022-10-30T00:07:34.164Z,100718.28
2022-10-30T00:10:07.883Z,100708.34
2022-10-30T00:12:53.796Z,100716.25
2022-10-30T00:15:29.082Z,100722.59
2022-10-30T00:18:18.649Z,100716.00
2022-10-30T00:20:49.769Z,100709.53
2022-10-30T00:23:39.553Z,100709.69
2022-10-30T00:26:16.287Z,100699.94
2022-10-30T00:29:12.705Z,100697.75
2022-10-30T00:31:48.275Z,100697.19
2022-10-30T00:34:40.952Z,100691.25
2022-10-30T00:37:10.557Z,100696.06
2022-10-30T00:40:11.181Z,100698.66
2022-10-30T00:43:00.041Z,100686.28
2022-10-30T00:45:39.633Z,100693.44
2022-10-30T00:48:13.181Z,100690.97
2022-10-30T00:51:01.628Z,100660.38
2022-10-30T00:54:00.096Z,100686.66
2022-10-30T00:56:31.397Z,100654.72
2022-10-30T00:59:25.708Z,100687.38
2022-10-30T01:02:04.333Z,100688.47
2022-10-30T01:04:58.253Z,100698.50
2022-10-30T01:07:38.794Z,100698.09
2022-10-30T01:10:10.151Z,100692.69
2022-10-30T01:12:43.068Z,100686.31
2022-10-30T01:15:16.798Z,100692.88
2022-10-30T01:18:49.367Z,100690.91
2022-10-30T01:21:42.028Z,100689.19
2022-10-30T01:24:27.510Z,100690.34
2022-10-30T01:27:16.157Z,100606.66
2022-10-30T01:30:16.532Z,100657.00
2022-10-30T01:33:01.846Z,100659.13
2022-10-30T01:35:47.009Z,100675.25
2022-10-30T01:38:35.904Z,100686.66
2022-10-30T01:41:16.141Z,100686.22
2022-10-30T01:43:48.778Z,100681.91
2022-10-30T01:46:45.184Z,100683.50
2022-10-30T01:49:49.332Z,100685.00
2022-10-30T01:52:46.909Z,100684.41
2022-10-30T01:55:51.092Z,100681.34
2022-10-30T01:58:30.898Z,100675.47
2022-10-30T02:01:05.453Z,100672.94
2022-10-30T02:06:54.171Z,100660.47
2022-10-30T02:09:30.682Z,100654.34
2022-10-30T02:12:07.538Z,100634.56
2022-10-30T02:14:39.063Z,100663.88
2022-10-30T02:17:13.205Z,100634.56
2022-10-30T02:20:08.427Z,100663.78
2022-10-30T02:22:44.473Z,100661.34
2022-10-30T02:25:19.439Z,100663.00
2022-10-30T02:28:09.130Z,100651.72
2022-10-30T02:30:44.596Z,100669.78
2022-10-30T02:33:44.068Z,100672.59
2022-10-30T02:36:16.922Z,100674.50
2022-10-30T02:38:45.022Z,100642.16
2022-10-30T02:41:16.787Z,100669.38
2022-10-30T02:44:07.030Z,100674.31
2022-10-30T02:46:45.683Z,100659.44
2022-10-30T02:49:21.476Z,100631.19
2022-10-30T02:51:51.794Z,100662.91
2022-10-30T02:54:31.613Z,100664.38
2022-10-30T02:57:09.797Z,100655.97
2022-10-30T02:59:50.625Z,100658.50
2022-10-30T03:02:20.391Z,100659.19
2022-10-30T03:05:07.234Z,100664.97
2022-10-30T03:07:39.007Z,100613.94
2022-10-30T03:10:18.539Z,100662.78
2022-10-30T03:12:48.567Z,100663.00
2022-10-30T03:15:18.717Z,100653.47
2022-10-30T03:18:08.496Z,100660.19
2022-10-30T03:20:38.585Z,100661.47
2022-10-30T03:23:24.866Z,100662.97
2022-10-30T03:26:02.730Z,100668.66
2022-10-30T03:28:51.593Z,100666.91
2022-10-30T03:31:30.039Z,100653.94
2022-10-30T03:34:05.801Z,100626.38
2022-10-30T03:36:59.157Z,100667.59
2022-10-30T03:40:09.448Z,100668.59
2022-10-30T03:42:41.432Z,100661.59
2022-10-30T03:45:21.737Z,100668.97
2022-10-30T03:47:56.754Z,100665.16
2022-10-30T03:50:32.351Z,100679.16
2022-10-30T03:53:11.671Z,100665.56
2022-10-30T03:55:47.470Z,100673.03
2022-10-30T03:58:26.837Z,100641.66
2022-10-30T04:01:01.860Z,100669.34
2022-10-30T04:03:35.026Z,100671.25
2022-10-30T04:06:14.770Z,100677.25
2022-10-30T04:08:48.867Z,100670.66
2022-10-30T04:11:21.976Z,100666.94
2022-10-30T04:14:12.187Z,100683.91
2022-10-30T04:16:46.449Z,100640.81
2022-10-30T04:19:19.332Z,100678.44
2022-10-30T04:21:55.917Z,100688.50
2022-10-30T04:24:26.696Z,100681.09
2022-10-30T04:26:59.412Z,100640.56
2022-10-30T04:29:42.837Z,100676.47
2022-10-30T04:32:10.932Z,100674.69
2022-10-30T04:34:44.170Z,100681.53
2022-10-30T04:37:36.259Z,100679.94
2022-10-30T04:40:12.619Z,100676.28
2022-10-30T04:42:47.559Z,100649.53
2022-10-30T04:45:21.270Z,100670.13
2022-10-30T04:48:37.328Z,100669.97
2022-10-30T04:51:27.043Z,100670.44
2022-10-30T04:54:02.763Z,100683.00
2022-10-30T04:56:39.625Z,100682.47
2022-10-30T04:59:29.152Z,100692.28
2022-10-30T05:02:03.009Z,100695.41
2022-10-30T05:04:50.253Z,100681.19
2022-10-30T05:07:40.881Z,100683.16
2022-10-30T05:10:18.878Z,100694.59
2022-10-30T05:13:17.784Z,100684.41
2022-10-30T05:15:50.909Z,100684.28
2022-10-30T05:18:20.742Z,100681.41
2022-10-30T05:20:58.763Z,100682.34
2022-10-30T05:23:49.067Z,100685.41
2022-10-30T05:26:16.170Z,100679.00
2022-10-30T05:28:52.026Z,100684.38
2022-10-30T05:31:22.125Z,100656.53
2022-10-30T05:33:54.989Z,100670.25
2022-10-30T05:36:29.308Z,100669.81
2022-10-30T05:39:22.752Z,100677.09
2022-10-30T05:41:49.754Z,100677.16
2022-10-30T05:44:34.386Z,100673.97
2022-10-30T05:47:11.926Z,100676.44
2022-10-30T05:49:47.594Z,100640.66
2022-10-30T05:52:34.914Z,100675.53
2022-10-30T05:55:08.706Z,100672.00
2022-10-30T05:57:49.878Z,100673.47
2022-10-30T06:00:25.603Z,100680.66
2022-10-30T06:03:02.166Z,100654.38
2022-10-30T06:05:40.680Z,100683.19
2022-10-30T06:08:28.262Z,100679.81
2022-10-30T06:11:13.025Z,100661.31
2022-10-30T06:14:00.919Z,100687.31
2022-10-30T06:19:17.456Z,100697.09
2022-10-30T06:21:57.869Z,100698.88
2022-10-30T06:24:39.038Z,100704.81
2022-10-30T06:27:18.230Z,100677.53
2022-10-30T06:30:39.630Z,100700.72
2022-10-30T06:33:13.740Z,100696.66
2022-10-30T06:36:04.696Z,100674.72
2022-10-30T06:38:44.651Z,100698.47
2022-10-30T06:41:35.347Z,100706.97
2022-10-30T06:44:08.286Z,100672.88
2022-10-30T06:46:58.442Z,100712.94
2022-10-30T06:49:43.339Z,100695.31
2022-10-30T06:52:19.306Z,100698.19
2022-10-30T06:55:15.395Z,100705.91
2022-10-30T06:57:43.970Z,100713.53
2022-10-30T07:00:14.523Z,100680.06
2022-10-30T07:03:07.050Z,100716.63
2022-10-30T07:05:51.878Z,100718.78
2022-10-30T07:08:18.921Z,100709.53
2022-10-30T07:10:54.610Z,100713.81
2022-10-30T07:13:25.812Z,100716.00
2022-10-30T07:16:01.567Z,100706.75
2022-10-30T07:18:35.807Z,100706.66
2022-10-30T07:21:14.611Z,100702.16
2022-10-30T07:24:27.567Z,100708.00
2022-10-30T07:27:01.758Z,100708.09
2022-10-30T07:30:02.394Z,100717.00
2022-10-30T07:32:58.364Z,100721.53
2022-10-30T07:36:05.787Z,100724.94
2022-10-30T07:38:43.671Z,100719.19
2022-10-30T07:41:31.285Z,100723.25
2022-10-30T07:44:21.671Z,100725.50
2022-10-30T07:46:54.436Z,100728.13
2022-10-30T07:50:00.275Z,100728.44
2022-10-30T07:52:43.232Z,100728.22
2022-10-30T07:55:12.829Z,100726.72
2022-10-30T07:58:03.583Z,100731.63
2022-10-30T08:00:33.200Z,100726.34
2022-10-30T08:03:17.107Z,100733.84
2022-10-30T08:08:55.791Z,100740.91
2022-10-30T08:11:31.836Z,100705.00
2022-10-30T08:14:08.294Z,100736.47
2022-10-30T08:17:01.340Z,100744.03
2022-10-30T08:19:48.534Z,100747.81
2022-10-30T08:22:22.620Z,100727.56
2022-10-30T08:25:07.761Z,100734.72
2022-10-30T08:28:16.120Z,100735.31
2022-10-30T08:30:53.722Z,100730.50
2022-10-30T08:33:25.897Z,100730.41
2022-10-30T08:36:16.433Z,100729.16
2022-10-30T08:38:52.289Z,100720.31
2022-10-30T08:41:59.353Z,100728.88
2022-10-30T08:44:50.736Z,100726.13
2022-10-30T08:47:56.497Z,100728.19
2022-10-30T08:50:36.141Z,100723.03
2022-10-30T08:53:32.572Z,100725.94
2022-10-30T08:56:24.786Z,100718.91
2022-10-30T08:59:10.498Z,100724.13
2022-10-30T09:01:41.428Z,100732.00
2022-10-30T09:04:31.768Z,100736.75
2022-10-30T09:07:32.451Z,100731.88
2022-10-30T09:10:26.461Z,100724.22
2022-10-30T09:13:17.851Z,100730.19
2022-10-30T09:16:05.120Z,100725.53
2022-10-30T09:18:59.965Z,100713.50
2022-10-30T09:21:47.164Z,100725.94
2022-10-30T09:25:05.141Z,100718.94
2022-10-30T09:27:38.425Z,100719.56
2022-10-30T09:30:14.769Z,100725.28
2022-10-30T09:32:59.017Z,100697.47
2022-10-30T09:35:40.817Z,100730.69
2022-10-30T09:38:22.617Z,100732.94
2022-10-30T09:41:16.120Z,100728.00
2022-10-30T09:44:13.591Z,100727.25
2022-10-30T09:46:46.396Z,100728.41
2022-10-30T09:49:32.991Z,100731.41
2022-10-30T09:52:44.980Z,100734.28
2022-10-30T09:55:45.405Z,100738.69
2022-10-30T09:58:38.318Z,100737.91
2022-10-30T10:01:33.836Z,100735.53
2022-10-30T10:04:31.246Z,100712.91
2022-10-30T10:07:26.855Z,100737.28
2022-10-30T10:10:35.963Z,100735.56
2022-10-30T10:24:08.789Z,100725.97
2022-10-30T10:26:50.726Z,100726.56
2022-10-30T10:29:36.383Z,100731.06
2022-10-30T10:32:33.825Z,100725.53
2022-10-30T10:35:24.972Z,100719.97
2022-10-30T10:38:04.260Z,100725.25
2022-10-30T10:41:02.221Z,100691.22
2022-10-30T10:43:55.291Z,100722.72
2022-10-30T10:47:07.169Z,100711.75
2022-10-30T10:49:46.818Z,100720.50
2022-10-30T10:52:28.836Z,100707.66
2022-10-30T10:55:22.541Z,100712.72
2022-10-30T10:58:07.770Z,100708.03
2022-10-30T11:00:40.973Z,100711.28
2022-10-30T11:03:49.293Z,100714.88
2022-10-30T11:06:53.145Z,100714.13
2022-10-30T11:09:28.583Z,100711.84
2022-10-30T11:12:22.504Z,100703.75
2022-10-30T11:15:18.608Z,100702.50
2022-10-30T11:17:57.035Z,100703.22
2022-10-30T11:21:08.715Z,100702.03
2022-10-30T11:24:05.893Z,100703.63
2022-10-30T11:26:43.111Z,100696.06
2022-10-30T11:29:40.808Z,100701.56
2022-10-30T11:32:41.318Z,100705.31
2022-10-30T11:35:32.015Z,100698.56
2022-10-30T11:38:21.432Z,100701.16
2022-10-30T11:40:59.017Z,100706.72
2022-10-30T11:43:37.700Z,100692.75
2022-10-30T11:46:21.116Z,100691.63
2022-10-30T11:49:00.960Z,100692.59
2022-10-30T11:51:51.041Z,100697.72
2022-10-30T11:54:59.990Z,100703.91
2022-10-30T11:58:02.668Z,100695.06
2022-10-30T12:00:45.901Z,100688.59
2022-10-30T12:03:57.282Z,100695.25
2022-10-30T12:06:27.580Z,100687.06
2022-10-30T12:09:24.509Z,100678.19
2022-10-30T12:12:06.703Z,100680.38
2022-10-30T12:14:59.307Z,100675.47
2022-10-30T12:17:52.520Z,100676.28
2022-10-30T12:20:25.800Z,100670.88
2022-10-30T12:23:18.498Z,100666.84
2022-10-30T12:26:29.490Z,100666.91
2022-10-30T12:29:24.294Z,100656.00
2022-10-30T12:31:56.222Z,100638.66
2022-10-30T12:34:50.826Z,100662.06
2022-10-30T12:37:42.516Z,100649.66
2022-10-30T12:40:38.919Z,100651.72
2022-10-30T12:43:39.677Z,100658.56
2022-10-30T12:46:29.521Z,100648.69
2022-10-30T12:49:36.198Z,100658.53
2022-10-30T12:52:41.487Z,100640.69
2022-10-30T12:55:46.226Z,100635.38
2022-10-30T12:58:55.502Z,100634.91
2022-10-30T13:01:49.393Z,100636.59
2022-10-30T13:04:24.880Z,100634.44
2022-10-30T13:07:12.744Z,100638.25
2022-10-30T13:09:56.981Z,100627.25
2022-10-30T13:12:39.499Z,100632.97
2022-10-30T13:15:22.483Z,100629.75
2022-10-30T13:18:02.241Z,100625.00
2022-10-30T13:21:07.902Z,100630.31
2022-10-30T13:24:27.521Z,100621.34
2022-10-30T13:27:15.971Z,100626.81
2022-10-30T13:30:02.176Z,100628.22
2022-10-30T13:33:02.531Z,100586.78
2022-10-30T13:35:57.855Z,100609.09
2022-10-30T13:38:50.540Z,100634.06
2022-10-30T13:41:42.819Z,100634.19
2022-10-30T13:44:14.104Z,100630.34
2022-10-30T13:47:37.565Z,100604.44
2022-10-30T13:50:42.331Z,100628.75
2022-10-30T13:53:35.819Z,100617.91
2022-10-30T13:56:30.398Z,100631.28
2022-10-30T13:59:27.058Z,100630.00
2022-10-30T14:02:32.308Z,100632.97
2022-10-30T14:05:39.684Z,100627.34
2022-10-30T14:08:45.584Z,100612.13
2022-10-30T14:11:24.038Z,100618.31
2022-10-30T14:14:07.752Z,100622.75
2022-10-30T14:17:16.070Z,100630.81
2022-10-30T14:20:21.594Z,100617.69
2022-10-30T14:23:17.213Z,100622.44
2022-10-30T14:26:04.783Z,100617.28
2022-10-30T14:28:52.685Z,100627.38
2022-10-30T14:31:40.356Z,100624.22
2022-10-30T14:35:10.972Z,100627.72
2022-10-30T14:37:58.995Z,100634.16
2022-10-30T14:41:46.247Z,100623.09
2022-10-30T14:44:29.524Z,100626.31
2022-10-30T14:47:21.020Z,100616.47
2022-10-30T14:50:17.454Z,100628.88
2022-10-30T14:53:19.759Z,100618.75
2022-10-30T14:56:34.347Z,100623.25
2022-10-30T14:59:20.101Z,100625.75
2022-10-30T15:02:19.218Z,100616.00
2022-10-30T15:05:38.863Z,100621.06
2022-10-30T15:08:30.201Z,100635.56
2022-10-30T15:11:34.521Z,100627.84
2022-10-30T15:14:53.845Z,100621.72
2022-10-30T15:17:57.802Z,100626.59
2022-10-30T15:20:46.394Z,100632.47
2022-10-30T15:23:33.963Z,100605.88
2022-10-30T15:26:44.755Z,100625.31
2022-10-30T15:29:37.516Z,100627.84
2022-10-30T15:32:36.997Z,100608.97
2022-10-30T15:35:36.390Z,100624.38
2022-10-30T15:38:25.795Z,100634.41
2022-10-30T15:41:17.261Z,100630.03
2022-10-30T15:43:50.635Z,100630.75
2022-10-30T15:46:50.432Z,100623.59
2022-10-30T15:49:54.463Z,100621.91
2022-10-30T15:52:29.709Z,100626.78
2022-10-30T15:55:12.560Z,100641.50
2022-10-30T15:58:02.753Z,100628.91
2022-10-30T16:01:01.371Z,100621.25
2022-10-30T16:03:33.926Z,100628.91
2022-10-30T16:06:29.586Z,100624.78
2022-10-30T16:09:17.139Z,100629.78
2022-10-30T16:12:11.875Z,100629.91
2022-10-30T16:15:07.243Z,100626.22
2022-10-30T16:18:08.996Z,100628.97
2022-10-30T16:20:47.856Z,100604.66
2022-10-30T16:23:26.109Z,100633.69
2022-10-30T16:26:09.087Z,100630.97
2022-10-30T16:29:00.911Z,100627.00
2022-10-30T16:31:42.534Z,100637.16
2022-10-30T16:34:40.864Z,100637.63
2022-10-30T16:37:18.653Z,100625.28
2022-10-30T16:39:51.389Z,100644.41
2022-10-30T16:42:42.488Z,100647.47
2022-10-30T16:45:42.337Z,100648.88
2022-10-30T16:48:27.857Z,100647.16
2022-10-30T16:51:27.198Z,100651.31
2022-10-30T16:54:04.951Z,100652.06
2022-10-30T16:56:59.167Z,100658.88
2022-10-30T16:59:30.675Z,100661.69
2022-10-30T17:02:21.779Z,100668.25
2022-10-30T17:05:07.117Z,100664.38
2022-10-30T17:08:02.135Z,100667.00
2022-10-30T17:10:35.677Z,100665.28
2022-10-30T17:13:35.026Z,100674.19
2022-10-30T17:16:41.934Z,100680.91
2022-10-30T17:19:46.591Z,100686.38
2022-10-30T17:22:35.218Z,100692.84
2022-10-30T17:25:33.075Z,100693.69
2022-10-30T17:28:06.479Z,100664.72
2022-10-30T17:31:00.778Z,100695.06
2022-10-30T17:33:51.552Z,100691.47
2022-10-30T17:36:42.399Z,100706.38
2022-10-30T17:39:13.009Z,100694.63
2022-10-30T17:41:46.997Z,100695.53
2022-10-30T17:44:30.728Z,100713.78
2022-10-30T17:47:21.666Z,100713.97
2022-10-30T17:50:11.841Z,100705.19
2022-10-30T17:53:17.276Z,100703.28
2022-10-30T17:56:00.780Z,100712.28
2022-10-30T17:58:42.346Z,100708.78
2022-10-30T18:01:18.557Z,100721.47
2022-10-30T18:04:07.009Z,100719.53
2022-10-30T18:06:42.761Z,100713.03
2022-10-30T18:09:15.728Z,100723.59
2022-10-30T18:11:45.369Z,100699.59
2022-10-30T18:14:13.810Z,100732.69
2022-10-30T18:17:05.344Z,100725.03
2022-10-30T18:19:55.686Z,100726.63
2022-10-30T18:22:48.861Z,100743.47
2022-10-30T18:25:45.292Z,100741.50
2022-10-30T18:28:18.400Z,100734.63
2022-10-30T18:30:58.955Z,100709.28
2022-10-30T18:33:26.406Z,100746.28
2022-10-30T18:35:59.974Z,100739.13
2022-10-30T18:38:30.864Z,100745.19
2022-10-30T18:41:29.613Z,100758.75
2022-10-30T18:44:07.509Z,100757.25
2022-10-30T18:46:40.378Z,100753.13
2022-10-30T18:49:33.626Z,100754.25
2022-10-30T18:52:03.414Z,100747.31
2022-10-30T18:54:34.310Z,100755.06
2022-10-30T18:57:28.174Z,100751.06
2022-10-30T19:00:07.511Z,100746.25
2022-10-30T19:02:45.416Z,100727.81
2022-10-30T19:05:53.299Z,100764.97
2022-10-30T19:08:21.386Z,100731.25
2022-10-30T19:11:13.161Z,100768.69
2022-10-30T19:14:02.112Z,100757.97
2022-10-30T19:16:49.595Z,100762.19
2022-10-30T19:19:33.492Z,100770.72
2022-10-30T19:22:23.590Z,100766.59
2022-10-30T19:25:08.163Z,100770.75
2022-10-30T19:28:04.651Z,100771.91
2022-10-30T19:30:36.758Z,100745.72
2022-10-30T19:33:08.971Z,100771.78
2022-10-30T19:35:47.796Z,100779.38
2022-10-30T19:38:18.534Z,100779.78
2022-10-30T19:40:52.666Z,100775.91
2022-10-30T19:43:25.972Z,100782.38
2022-10-30T19:45:59.671Z,100746.09
2022-10-30T19:51:28.245Z,100784.06
2022-10-30T19:53:58.650Z,100773.03
2022-10-30T19:56:34.481Z,100779.31
2022-10-30T19:59:10.681Z,100787.72
2022-10-30T20:01:42.085Z,100782.72
2022-10-30T20:04:34.533Z,100793.44
2022-10-30T20:07:12.309Z,100786.88
2022-10-30T20:09:42.356Z,100784.91
2022-10-30T20:12:15.755Z,100792.72
2022-10-30T20:14:50.763Z,100794.91
2022-10-30T20:17:17.891Z,100793.44
2022-10-30T20:19:53.787Z,100800.66
2022-10-30T20:22:33.152Z,100802.31
2022-10-30T20:25:00.867Z,100799.94
2022-10-30T20:30:31.363Z,100804.63
2022-10-30T20:33:12.314Z,100808.38
2022-10-30T20:36:03.011Z,100804.38
2022-10-30T20:38:36.558Z,100778.84
2022-10-30T20:41:07.541Z,100806.38
2022-10-30T20:43:43.266Z,100804.63
2022-10-30T20:46:15.501Z,100802.09
2022-10-30T20:48:48.181Z,100785.91
2022-10-30T20:51:23.741Z,100805.44
2022-10-30T20:53:53.727Z,100797.31
2022-10-30T20:56:26.545Z,100784.38
2022-10-30T20:59:16.870Z,100815.72
2022-10-30T21:01:49.984Z,100807.91
2022-10-30T21:04:22.694Z,100817.03
2022-10-30T21:06:56.720Z,100819.63
2022-10-30T21:09:35.632Z,100811.91
2022-10-30T21:12:14.338Z,100817.75
2022-10-30T21:14:50.284Z,100796.81
2022-10-30T21:17:26.375Z,100810.69
2022-10-30T21:20:08.677Z,100824.25
2022-10-30T21:22:41.754Z,100824.28
2022-10-30T21:25:31.791Z,100836.53
2022-10-30T21:28:05.427Z,100837.56
2022-10-30T21:30:41.672Z,100837.06
2022-10-30T21:33:17.434Z,100832.72
2022-10-30T21:35:48.265Z,100807.38
2022-10-30T21:38:26.794Z,100829.13
2022-10-30T21:41:00.307Z,100830.81
2022-10-30T21:43:27.413Z,100806.34
2022-10-30T21:45:57.698Z,100836.38
2022-10-30T21:48:27.608Z,100826.09
2022-10-30T21:50:55.712Z,100830.44
2022-10-30T21:53:22.621Z,100832.78
2022-10-30T21:55:52.328Z,100839.19
2022-10-30T21:58:31.686Z,100830.84
2022-10-30T22:01:07.796Z,100797.16
2022-10-30T22:03:47.781Z,100839.66
2022-10-30T22:06:28.952Z,100828.47
2022-10-30T22:09:10.222Z,100824.41
2022-10-30T22:11:45.975Z,100830.44
2022-10-30T22:14:16.145Z,100806.66
2022-10-30T22:16:43.170Z,100830.88
2022-10-30T22:19:14.536Z,100817.66
2022-10-30T22:22:05.108Z,100820.88
2022-10-30T22:24:38.818Z,100796.97
2022-10-30T22:27:20.213Z,100818.34
2022-10-30T22:29:50.531Z,100826.06
2022-10-30T22:32:23.229Z,100816.09
2022-10-30T22:34:54.253Z,100819.97
2022-10-30T22:37:29.853Z,100823.97
2022-10-30T22:40:09.094Z,100822.41
2022-10-30T22:42:41.606Z,100823.91
2022-10-30T22:45:12.534Z,100821.81
2022-10-30T22:47:47.430Z,100818.91
2022-10-30T22:50:21.721Z,100797.66
2022-10-30T22:53:00.974Z,100826.41
2022-10-30T22:55:39.831Z,100824.66
2022-10-30T22:58:13.087Z,100789.56
2022-10-30T23:00:40.679Z,100816.06
2022-10-30T23:03:14.657Z,100793.47
2022-10-30T23:05:59.694Z,100793.69
2022-10-30T23:08:35.957Z,100833.41
2022-10-30T23:11:08.360Z,100817.72
2022-10-30T23:13:58.988Z,100835.00
2022-10-30T23:16:27.244Z,100823.78
2022-10-30T23:18:58.413Z,100830.78
2022-10-30T23:21:29.973Z,100830.97
2022-10-30T23:24:01.984Z,100828.53
2022-10-30T23:26:34.058Z,100768.84
2022-10-30T23:29:04.822Z,100830.19
2022-10-30T23:31:49.765Z,100815.75
2022-10-30T23:34:19.946Z,100830.63
2022-10-30T23:36:55.161Z,100822.91
2022-10-30T23:39:31.046Z,100822.84
2022-10-30T23:42:06.970Z,100817.03
2022-10-30T23:44:39.442Z,100817.97
2022-10-30T23:47:29.261Z,100816.53
2022-10-30T23:50:01.141Z,100808.75
2022-10-30T23:52:31.405Z,100813.34
2022-10-30T23:55:01.547Z,100816.53
2022-10-30T23:57:33.563Z,100801.31
